createdAt,value
2023-05-05T00:03:20.334Z,99233.59
2023-05-05T00:08:23.259Z,99246.25
2023-05-05T00:13:27.289Z,99224.44
2023-05-05T00:18:30.184Z,99226.56
2023-05-05T00:23:32.836Z,99229.47
2023-05-05T00:28:36.823Z,99222.47
2023-05-05T00:33:39.495Z,99221.59
2023-05-05T00:38:42.930Z,99219.97
2023-05-05T00:43:47.167Z,99208.88
2023-05-05T00:48:49.920Z,99214.78
2023-05-05T00:53:52.709Z,99213.38
2023-05-05T00:58:58.356Z,99217.13
2023-05-05T01:04:01.398Z,99227.91
2023-05-05T01:09:09.862Z,99228.13
2023-05-05T01:14:17.014Z,99223.44
2023-05-05T01:19:33.641Z,99226.53
2023-05-05T01:24:59.350Z,99213.53
2023-05-05T01:30:09.883Z,99224.53
2023-05-05T01:35:19.646Z,99222.50
2023-05-05T01:40:26.686Z,99230.44
2023-05-05T01:45:30.608Z,99233.34
2023-05-05T01:50:35.011Z,99228.66
2023-05-05T01:55:38.203Z,99235.69
2023-05-05T02:00:41.562Z,99244.44
2023-05-05T02:05:45.800Z,99235.16
2023-05-05T02:10:49.047Z,99244.75
2023-05-05T02:15:53.020Z,99242.69
2023-05-05T02:20:57.198Z,99248.53
2023-05-05T02:26:04.641Z,99254.31
2023-05-05T02:31:08.515Z,99258.28
2023-05-05T02:36:16.563Z,99260.16
2023-05-05T02:41:26.784Z,99269.06
2023-05-05T02:46:30.399Z,99274.88
2023-05-05T02:51:34.527Z,99287.53
2023-05-05T02:56:44.085Z,99274.72
2023-05-05T03:01:57.076Z,99275.41
2023-05-05T03:07:10.885Z,99288.25
2023-05-05T03:12:17.955Z,99281.19
2023-05-05T03:17:30.791Z,99279.75
2023-05-05T03:22:37.950Z,99280.19
2023-05-05T03:27:43.593Z,99279.16
2023-05-05T03:32:49.812Z,99282.88
2023-05-05T03:37:55.412Z,99276.88
2023-05-05T03:42:58.748Z,99279.59
2023-05-05T03:48:02.067Z,99280.63
2023-05-05T03:53:07.054Z,99272.56
2023-05-05T03:58:09.908Z,99273.00
2023-05-05T04:03:12.750Z,99274.63
2023-05-05T04:08:17.030Z,99286.47
2023-05-05T04:13:19.846Z,99277.78
2023-05-05T04:18:23.283Z,99293.91
2023-05-05T04:23:27.933Z,99287.47
2023-05-05T04:28:30.682Z,99298.66
2023-05-05T04:33:33.378Z,99302.78
2023-05-05T04:38:37.821Z,99298.19
2023-05-05T04:43:41.246Z,99302.69
2023-05-05T04:48:43.972Z,99304.28
2023-05-05T04:53:48.315Z,99307.38
2023-05-05T04:58:51.097Z,99320.19
2023-05-05T05:03:54.148Z,99331.31
2023-05-05T05:08:58.291Z,99324.66
2023-05-05T05:14:01.029Z,99331.00
2023-05-05T05:19:03.758Z,99345.41
2023-05-05T05:24:11.026Z,99343.97
2023-05-05T05:29:14.233Z,99346.13
2023-05-05T05:34:17.122Z,99345.09
2023-05-05T05:39:22.302Z,99344.53
2023-05-05T05:44:25.915Z,99348.03
2023-05-05T05:49:28.712Z,99352.81
2023-05-05T05:54:34.408Z,99355.69
2023-05-05T05:59:39.266Z,99347.00
2023-05-05T06:04:42.556Z,99357.75
2023-05-05T06:09:47.603Z,99345.97
2023-05-05T06:14:52.206Z,99357.75
2023-05-05T06:19:54.946Z,99359.44
2023-05-05T06:24:59.259Z,99361.03
2023-05-05T06:30:02.040Z,99363.47
2023-05-05T06:35:05.125Z,99356.78
2023-05-05T06:40:11.313Z,99364.78
2023-05-05T06:45:14.212Z,99369.31
2023-05-05T06:50:16.895Z,99379.50
2023-05-05T06:55:21.275Z,99379.56
2023-05-05T07:00:24.496Z,99379.00
2023-05-05T07:05:27.129Z,99370.97
2023-05-05T07:10:31.826Z,99369.47
2023-05-05T07:15:34.641Z,99379.81
2023-05-05T07:20:37.282Z,99393.75
2023-05-05T07:25:41.347Z,99397.13
2023-05-05T07:30:43.982Z,99403.78
2023-05-05T07:35:46.848Z,99401.28
2023-05-05T07:40:50.803Z,99419.50
2023-05-05T07:45:53.549Z,99420.94
2023-05-05T07:50:56.379Z,99417.78
2023-05-05T07:56:00.398Z,99412.03
2023-05-05T08:01:05.762Z,99421.09
2023-05-05T08:06:09.850Z,99414.06
2023-05-05T08:11:13.872Z,99414.25
2023-05-05T08:16:16.602Z,99417.34
2023-05-05T08:21:19.247Z,99421.50
2023-05-05T08:26:23.464Z,99420.03
2023-05-05T08:31:26.149Z,99410.19
2023-05-05T08:36:29.007Z,99418.13
2023-05-05T08:41:34.062Z,99411.09
2023-05-05T08:46:37.545Z,99408.41
2023-05-05T08:51:45.383Z,99408.56
2023-05-05T08:56:51.303Z,99412.44
2023-05-05T09:02:23.872Z,99412.44
2023-05-05T09:07:26.568Z,99412.59
2023-05-05T09:12:32.066Z,99421.50
2023-05-05T09:17:34.998Z,99437.56
2023-05-05T09:22:38.568Z,99424.09
2023-05-05T09:27:45.699Z,99420.69
2023-05-05T09:32:51.527Z,99427.50
2023-05-05T09:37:54.174Z,99432.25
2023-05-05T09:43:03.115Z,99430.97
2023-05-05T09:48:06.280Z,99425.22
2023-05-05T09:53:09.127Z,99424.16
2023-05-05T09:58:20.397Z,99412.13
2023-05-05T10:03:23.261Z,99414.78
2023-05-05T10:08:28.049Z,99415.25
2023-05-05T10:13:35.981Z,99415.00
2023-05-05T10:18:41.356Z,99399.88
2023-05-05T10:23:50.278Z,99384.34
2023-05-05T10:28:56.820Z,99388.00
2023-05-05T10:34:03.540Z,99382.84
2023-05-05T10:39:09.246Z,99385.09
2023-05-05T10:44:13.351Z,99372.66
2023-05-05T10:49:25.684Z,99369.72
2023-05-05T10:54:33.958Z,99352.72
2023-05-05T10:59:43.435Z,99361.41
2023-05-05T11:05:04.681Z,99344.00
2023-05-05T11:10:08.722Z,99341.47
2023-05-05T11:15:41.428Z,99341.25
2023-05-05T11:21:08.960Z,99340.19
2023-05-05T11:26:12.017Z,99332.34
2023-05-05T11:31:20.011Z,99349.94
2023-05-05T11:36:39.279Z,99343.69
2023-05-05T11:41:52.928Z,99341.00
2023-05-05T11:47:32.134Z,99348.41
2023-05-05T11:52:34.874Z,99360.88
2023-05-05T11:57:37.781Z,99372.84
2023-05-05T12:02:42.214Z,99391.53
2023-05-05T12:07:44.948Z,99393.16
2023-05-05T12:12:48.439Z,99410.13
2023-05-05T12:17:52.674Z,99409.06
2023-05-05T12:23:00.834Z,99401.56
2023-05-05T12:28:03.539Z,99386.78
2023-05-05T12:33:08.499Z,99362.47
2023-05-05T12:38:11.369Z,99341.22
2023-05-05T12:43:35.409Z,99352.03
2023-05-05T12:48:40.295Z,99343.94
2023-05-05T12:53:43.286Z,99341.47
2023-05-05T12:58:49.246Z,99343.38
2023-05-05T13:04:15.470Z,99340.88
2023-05-05T13:09:25.671Z,99350.88
2023-05-05T13:14:28.321Z,99342.75
2023-05-05T13:19:32.301Z,99352.50
2023-05-05T13:24:46.612Z,99351.47
2023-05-05T13:29:54.055Z,99353.09
2023-05-05T13:34:58.094Z,99354.75
2023-05-05T13:40:01.242Z,99349.34
2023-05-05T13:45:04.263Z,99355.13
2023-05-05T13:50:09.148Z,99346.44
2023-05-05T13:55:11.848Z,99334.69
2023-05-05T14:00:15.947Z,99329.34
2023-05-05T14:05:20.179Z,99319.66
2023-05-05T14:10:23.021Z,99313.56
2023-05-05T14:15:25.685Z,99314.59
2023-05-05T14:20:29.785Z,99306.47
2023-05-05T14:25:32.460Z,99308.97
2023-05-05T14:30:35.122Z,99302.50
2023-05-05T14:35:39.123Z,99296.06
2023-05-05T14:40:41.749Z,99288.78
2023-05-05T14:45:45.128Z,99299.31
2023-05-05T14:50:49.827Z,99291.00
2023-05-05T14:55:52.560Z,99289.72
2023-05-05T15:00:55.615Z,99310.84
2023-05-05T15:17:00.925Z,99323.78
2023-05-05T15:22:03.603Z,99338.25
2023-05-05T15:27:06.388Z,99375.41
2023-05-05T15:32:10.451Z,99390.34
2023-05-05T15:37:13.142Z,99377.41
2023-05-05T15:42:15.811Z,99383.97
2023-05-05T15:47:19.775Z,99381.66
2023-05-05T15:52:22.600Z,99362.72
2023-05-05T15:57:25.294Z,99351.66
2023-05-05T16:02:29.394Z,99343.56
2023-05-05T16:07:32.082Z,99340.63
2023-05-05T16:12:34.796Z,99331.91
2023-05-05T16:17:38.768Z,99324.88
2023-05-05T16:22:41.385Z,99335.44
2023-05-05T16:27:44.047Z,99330.03
2023-05-05T16:32:51.054Z,99341.31
2023-05-05T16:37:53.734Z,99335.56
2023-05-05T16:42:56.414Z,99343.69
2023-05-05T16:48:00.475Z,99340.38
2023-05-05T16:53:03.224Z,99344.97
2023-05-05T16:58:05.866Z,99352.84
2023-05-05T17:03:09.902Z,99344.13
2023-05-05T17:08:14.100Z,99337.56
2023-05-05T17:13:16.961Z,99341.78
2023-05-05T17:18:22.664Z,99345.41
2023-05-05T17:23:25.258Z,99359.88
2023-05-05T17:28:27.857Z,99347.53
2023-05-05T17:33:31.827Z,99346.31
2023-05-05T17:38:34.513Z,99348.06
2023-05-05T17:43:37.102Z,99341.13
2023-05-05T17:48:41.216Z,99348.25
2023-05-05T17:53:43.917Z,99353.97
2023-05-05T17:58:46.523Z,99360.53
2023-05-05T18:03:50.685Z,99357.91
2023-05-05T18:08:53.719Z,99359.44
2023-05-05T18:13:56.419Z,99364.09
2023-05-05T18:19:00.390Z,99388.38
2023-05-05T18:24:15.733Z,99363.94
2023-05-05T18:29:22.945Z,99390.56
2023-05-05T18:34:27.351Z,99397.00
2023-05-05T18:39:30.234Z,99397.47
2023-05-05T18:44:34.741Z,99387.94
2023-05-05T18:49:38.915Z,99390.03
2023-05-05T18:54:41.606Z,99391.31
2023-05-05T18:59:44.559Z,99387.66
2023-05-05T19:04:48.608Z,99387.84
2023-05-05T19:09:51.385Z,99383.97
2023-05-05T19:14:54.001Z,99380.06
2023-05-05T19:19:57.993Z,99381.59
2023-05-05T19:25:01.045Z,99382.03
2023-05-05T19:30:04.050Z,99387.84
2023-05-05T19:35:10.380Z,99385.59
2023-05-05T19:40:13.952Z,99385.44
2023-05-05T19:45:16.713Z,99395.03
2023-05-05T19:50:21.254Z,99394.06
2023-05-05T19:55:24.395Z,99405.88
2023-05-05T20:00:27.264Z,99398.03
2023-05-05T20:05:31.381Z,99395.97
2023-05-05T20:10:34.066Z,99397.47
2023-05-05T20:15:37.009Z,99399.78
2023-05-05T20:20:41.084Z,99395.66
2023-05-05T20:25:43.703Z,99396.31
2023-05-05T20:30:46.354Z,99398.66
2023-05-05T20:35:50.468Z,99406.13
2023-05-05T20:40:53.109Z,99401.63
2023-05-05T20:45:55.746Z,99399.94
2023-05-05T20:50:59.843Z,99407.06
2023-05-05T20:56:02.471Z,99406.69
2023-05-05T21:01:05.261Z,99411.22
2023-05-05T21:06:09.286Z,99400.06
2023-05-05T21:11:11.946Z,99415.84
2023-05-05T21:16:14.672Z,99411.72
2023-05-05T21:21:18.761Z,99410.91
2023-05-05T21:26:21.365Z,99401.41
2023-05-05T21:31:23.990Z,99406.16
2023-05-05T21:36:29.003Z,99398.28
2023-05-05T21:41:31.642Z,99401.22
2023-05-05T21:46:34.404Z,99404.31
2023-05-05T21:51:38.376Z,99408.28
2023-05-05T21:56:41.079Z,99407.47
2023-05-05T22:01:43.853Z,99407.25
2023-05-05T22:06:47.848Z,99408.94
2023-05-05T22:11:52.208Z,99406.06
2023-05-05T22:16:54.787Z,99408.97
2023-05-05T22:21:59.520Z,99410.22
2023-05-05T22:27:02.192Z,99413.97
2023-05-05T22:32:04.828Z,99413.34
2023-05-05T22:37:09.677Z,99418.94
2023-05-05T22:42:12.347Z,99420.81
2023-05-05T22:47:15.153Z,99399.16
2023-05-05T22:52:19.369Z,99422.91
2023-05-05T22:57:22.143Z,99420.19
2023-05-05T23:02:26.382Z,99419.63
2023-05-05T23:07:30.477Z,99420.19
2023-05-05T23:12:33.151Z,99413.19
2023-05-05T23:17:35.943Z,99414.22
2023-05-05T23:22:40.089Z,99412.56
2023-05-05T23:27:43.752Z,99415.47
2023-05-05T23:32:46.640Z,99421.06
2023-05-05T23:37:50.686Z,99415.69
2023-05-05T23:42:53.301Z,99414.03
2023-05-05T23:47:56.070Z,99413.00
2023-05-05T23:53:00.066Z,99412.81
2023-05-05T23:58:02.761Z,99413.63
